sensor_id;sensor_type;location;lat;lon;timestamp;P1;durP1;ratioP1;P2;durP2;ratioP2
72201;SDS011;60105;54.956;73.412;2023-08-31T00:00:43;4.57;;;2.50;;
72201;SDS011;60105;54.956;73.412;2023-08-31T00:03:45;8.40;;;2.90;;
72201;SDS011;60105;54.956;73.412;2023-08-31T00:07:23;5.35;;;2.75;;
72201;SDS011;60105;54.956;73.412;2023-08-31T00:10:24;5.63;;;2.73;;
72201;SDS011;60105;54.956;73.412;2023-08-31T00:13:26;5.13;;;2.40;;
72201;SDS011;60105;54.956;73.412;2023-08-31T00:16:29;7.10;;;2.38;;
72201;SDS011;60105;54.956;73.412;2023-08-31T00:19:30;6.88;;;3.10;;
72201;SDS011;60105;54.956;73.412;2023-08-31T00:22:31;6.83;;;2.37;;
72201;SDS011;60105;54.956;73.412;2023-08-31T00:25:33;5.38;;;2.40;;
72201;SDS011;60105;54.956;73.412;2023-08-31T00:28:34;4.53;;;2.33;;
72201;SDS011;60105;54.956;73.412;2023-08-31T00:31:36;5.72;;;2.97;;
72201;SDS011;60105;54.956;73.412;2023-08-31T00:34:38;4.45;;;2.25;;
72201;SDS011;60105;54.956;73.412;2023-08-31T00:37:39;4.82;;;2.95;;
72201;SDS011;60105;54.956;73.412;2023-08-31T00:40:41;5.47;;;2.63;;
72201;SDS011;60105;54.956;73.412;2023-08-31T00:43:46;6.67;;;2.50;;
72201;SDS011;60105;54.956;73.412;2023-08-31T00:47:23;5.10;;;2.67;;
72201;SDS011;60105;54.956;73.412;2023-08-31T00:50:25;5.85;;;2.45;;
72201;SDS011;60105;54.956;73.412;2023-08-31T00:53:27;4.43;;;2.37;;
72201;SDS011;60105;54.956;73.412;2023-08-31T00:56:28;6.68;;;2.78;;
72201;SDS011;60105;54.956;73.412;2023-08-31T00:59:30;5.83;;;2.80;;
72201;SDS011;60105;54.956;73.412;2023-08-31T01:02:51;5.47;;;2.83;;
72201;SDS011;60105;54.956;73.412;2023-08-31T01:06:11;6.07;;;3.17;;
72201;SDS011;60105;54.956;73.412;2023-08-31T01:13:02;4.73;;;2.80;;
72201;SDS011;60105;54.956;73.412;2023-08-31T01:16:05;5.43;;;2.88;;
72201;SDS011;60105;54.956;73.412;2023-08-31T01:19:34;6.37;;;2.67;;
72201;SDS011;60105;54.956;73.412;2023-08-31T01:23:04;5.57;;;2.83;;
72201;SDS011;60105;54.956;73.412;2023-08-31T01:26:11;6.65;;;3.20;;
72201;SDS011;60105;54.956;73.412;2023-08-31T01:29:12;5.88;;;3.10;;
72201;SDS011;60105;54.956;73.412;2023-08-31T01:32:15;5.45;;;2.30;;
72201;SDS011;60105;54.956;73.412;2023-08-31T01:35:17;5.13;;;2.43;;
72201;SDS011;60105;54.956;73.412;2023-08-31T01:38:25;6.93;;;2.72;;
72201;SDS011;60105;54.956;73.412;2023-08-31T01:41:29;4.97;;;2.92;;
72201;SDS011;60105;54.956;73.412;2023-08-31T01:44:34;6.30;;;3.05;;
72201;SDS011;60105;54.956;73.412;2023-08-31T01:47:37;5.73;;;2.53;;
72201;SDS011;60105;54.956;73.412;2023-08-31T01:50:39;5.10;;;2.85;;
72201;SDS011;60105;54.956;73.412;2023-08-31T01:53:40;6.70;;;2.33;;
72201;SDS011;60105;54.956;73.412;2023-08-31T01:57:23;4.50;;;2.40;;
72201;SDS011;60105;54.956;73.412;2023-08-31T02:00:38;5.57;;;3.00;;
72201;SDS011;60105;54.956;73.412;2023-08-31T02:03:39;5.22;;;2.53;;
72201;SDS011;60105;54.956;73.412;2023-08-31T02:07:23;6.75;;;3.04;;
72201;SDS011;60105;54.956;73.412;2023-08-31T02:10:24;5.80;;;2.73;;
72201;SDS011;60105;54.956;73.412;2023-08-31T02:13:27;5.03;;;2.60;;
72201;SDS011;60105;54.956;73.412;2023-08-31T02:16:29;6.70;;;2.88;;
72201;SDS011;60105;54.956;73.412;2023-08-31T02:19:30;10.57;;;2.70;;
72201;SDS011;60105;54.956;73.412;2023-08-31T02:22:33;10.37;;;3.43;;
72201;SDS011;60105;54.956;73.412;2023-08-31T02:25:36;4.43;;;2.30;;
72201;SDS011;60105;54.956;73.412;2023-08-31T02:28:37;5.03;;;1.88;;
72201;SDS011;60105;54.956;73.412;2023-08-31T02:31:39;8.38;;;2.72;;
72201;SDS011;60105;54.956;73.412;2023-08-31T02:34:40;4.28;;;2.35;;
72201;SDS011;60105;54.956;73.412;2023-08-31T02:37:41;5.30;;;1.97;;
72201;SDS011;60105;54.956;73.412;2023-08-31T02:40:45;4.77;;;2.77;;
72201;SDS011;60105;54.956;73.412;2023-08-31T02:43:49;4.70;;;2.67;;
72201;SDS011;60105;54.956;73.412;2023-08-31T02:47:23;6.20;;;2.35;;
72201;SDS011;60105;54.956;73.412;2023-08-31T02:50:26;5.67;;;2.80;;
72201;SDS011;60105;54.956;73.412;2023-08-31T02:53:27;5.20;;;2.90;;
72201;SDS011;60105;54.956;73.412;2023-08-31T02:56:32;8.10;;;2.60;;
72201;SDS011;60105;54.956;73.412;2023-08-31T02:59:33;4.37;;;2.33;;
72201;SDS011;60105;54.956;73.412;2023-08-31T03:02:36;6.68;;;3.00;;
72201;SDS011;60105;54.956;73.412;2023-08-31T03:05:38;5.78;;;3.30;;
72201;SDS011;60105;54.956;73.412;2023-08-31T03:08:39;5.22;;;2.20;;
72201;SDS011;60105;54.956;73.412;2023-08-31T03:12:23;6.53;;;2.82;;
72201;SDS011;60105;54.956;73.412;2023-08-31T03:15:24;6.63;;;3.20;;
72201;SDS011;60105;54.956;73.412;2023-08-31T03:18:26;5.82;;;2.88;;
72201;SDS011;60105;54.956;73.412;2023-08-31T03:21:28;5.63;;;2.63;;
72201;SDS011;60105;54.956;73.412;2023-08-31T03:24:31;6.93;;;2.85;;
72201;SDS011;60105;54.956;73.412;2023-08-31T03:27:33;7.07;;;3.10;;
72201;SDS011;60105;54.956;73.412;2023-08-31T03:30:35;7.53;;;3.33;;
72201;SDS011;60105;54.956;73.412;2023-08-31T03:33:38;5.68;;;2.90;;
72201;SDS011;60105;54.956;73.412;2023-08-31T03:37:23;7.07;;;2.66;;
72201;SDS011;60105;54.956;73.412;2023-08-31T03:40:24;5.70;;;2.83;;
72201;SDS011;60105;54.956;73.412;2023-08-31T03:43:25;4.55;;;2.40;;
72201;SDS011;60105;54.956;73.412;2023-08-31T03:46:27;7.90;;;2.60;;
72201;SDS011;60105;54.956;73.412;2023-08-31T03:49:28;5.50;;;2.60;;
72201;SDS011;60105;54.956;73.412;2023-08-31T03:52:30;5.43;;;2.55;;
72201;SDS011;60105;54.956;73.412;2023-08-31T03:55:32;6.93;;;3.23;;
72201;SDS011;60105;54.956;73.412;2023-08-31T03:58:34;4.47;;;2.65;;
72201;SDS011;60105;54.956;73.412;2023-08-31T04:01:35;9.10;;;3.20;;
72201;SDS011;60105;54.956;73.412;2023-08-31T04:04:36;5.60;;;2.57;;
72201;SDS011;60105;54.956;73.412;2023-08-31T04:07:37;5.87;;;2.00;;
72201;SDS011;60105;54.956;73.412;2023-08-31T04:10:38;6.82;;;2.45;;
72201;SDS011;60105;54.956;73.412;2023-08-31T04:13:40;8.55;;;2.80;;
72201;SDS011;60105;54.956;73.412;2023-08-31T04:17:23;5.62;;;2.28;;
72201;SDS011;60105;54.956;73.412;2023-08-31T04:20:25;7.05;;;1.95;;
72201;SDS011;60105;54.956;73.412;2023-08-31T04:23:26;5.93;;;2.57;;
72201;SDS011;60105;54.956;73.412;2023-08-31T04:26:27;4.97;;;2.30;;
72201;SDS011;60105;54.956;73.412;2023-08-31T04:29:28;6.13;;;2.10;;
72201;SDS011;60105;54.956;73.412;2023-08-31T04:32:30;7.20;;;2.30;;
72201;SDS011;60105;54.956;73.412;2023-08-31T04:35:31;5.07;;;2.03;;
72201;SDS011;60105;54.956;73.412;2023-08-31T04:38:33;5.90;;;2.22;;
72201;SDS011;60105;54.956;73.412;2023-08-31T04:41:35;4.80;;;2.13;;
72201;SDS011;60105;54.956;73.412;2023-08-31T04:44:36;5.23;;;2.03;;
72201;SDS011;60105;54.956;73.412;2023-08-31T04:47:37;5.23;;;2.30;;
72201;SDS011;60105;54.956;73.412;2023-08-31T04:50:39;3.67;;;1.80;;
72201;SDS011;60105;54.956;73.412;2023-08-31T04:53:40;4.73;;;1.83;;
72201;SDS011;60105;54.956;73.412;2023-08-31T04:57:23;4.00;;;1.85;;
72201;SDS011;60105;54.956;73.412;2023-08-31T05:00:24;7.07;;;2.13;;
72201;SDS011;60105;54.956;73.412;2023-08-31T05:03:27;4.07;;;1.70;;
72201;SDS011;60105;54.956;73.412;2023-08-31T05:06:28;3.80;;;1.60;;
72201;SDS011;60105;54.956;73.412;2023-08-31T05:09:29;7.97;;;1.97;;
72201;SDS011;60105;54.956;73.412;2023-08-31T05:12:35;3.75;;;1.60;;
72201;SDS011;60105;54.956;73.412;2023-08-31T05:15:36;8.47;;;1.80;;
72201;SDS011;60105;54.956;73.412;2023-08-31T05:18:54;3.50;;;1.70;;
72201;SDS011;60105;54.956;73.412;2023-08-31T05:22:23;3.63;;;1.83;;
72201;SDS011;60105;54.956;73.412;2023-08-31T05:25:25;4.35;;;1.48;;
72201;SDS011;60105;54.956;73.412;2023-08-31T05:28:27;3.13;;;1.60;;
72201;SDS011;60105;54.956;73.412;2023-08-31T05:31:28;3.13;;;1.63;;
72201;SDS011;60105;54.956;73.412;2023-08-31T05:34:30;3.95;;;1.50;;
72201;SDS011;60105;54.956;73.412;2023-08-31T05:37:33;4.07;;;1.57;;
72201;SDS011;60105;54.956;73.412;2023-08-31T05:40:35;3.72;;;1.48;;
72201;SDS011;60105;54.956;73.412;2023-08-31T05:43:37;5.80;;;1.90;;
72201;SDS011;60105;54.956;73.412;2023-08-31T05:47:23;5.66;;;2.33;;
72201;SDS011;60105;54.956;73.412;2023-08-31T05:50:24;3.95;;;1.42;;
72201;SDS011;60105;54.956;73.412;2023-08-31T05:53:26;3.93;;;1.80;;
72201;SDS011;60105;54.956;73.412;2023-08-31T05:56:27;3.53;;;1.70;;
72201;SDS011;60105;54.956;73.412;2023-08-31T05:59:28;3.97;;;1.63;;
72201;SDS011;60105;54.956;73.412;2023-08-31T06:02:30;3.60;;;1.80;;
72201;SDS011;60105;54.956;73.412;2023-08-31T06:05:31;3.90;;;1.40;;
72201;SDS011;60105;54.956;73.412;2023-08-31T06:08:33;4.20;;;1.73;;
72201;SDS011;60105;54.956;73.412;2023-08-31T06:11:34;3.97;;;2.00;;
72201;SDS011;60105;54.956;73.412;2023-08-31T06:14:35;3.50;;;1.20;;
72201;SDS011;60105;54.956;73.412;2023-08-31T06:17:36;5.60;;;1.77;;
72201;SDS011;60105;54.956;73.412;2023-08-31T06:20:37;4.20;;;1.67;;
72201;SDS011;60105;54.956;73.412;2023-08-31T06:23:39;4.10;;;1.60;;
72201;SDS011;60105;54.956;73.412;2023-08-31T06:27:23;6.53;;;1.87;;
72201;SDS011;60105;54.956;73.412;2023-08-31T06:30:24;7.63;;;1.70;;
72201;SDS011;60105;54.956;73.412;2023-08-31T06:33:25;3.03;;;1.30;;
72201;SDS011;60105;54.956;73.412;2023-08-31T06:36:27;6.60;;;1.70;;
72201;SDS011;60105;54.956;73.412;2023-08-31T06:39:28;3.37;;;1.57;;
72201;SDS011;60105;54.956;73.412;2023-08-31T06:42:30;4.72;;;1.60;;
72201;SDS011;60105;54.956;73.412;2023-08-31T06:45:31;5.63;;;1.60;;
72201;SDS011;60105;54.956;73.412;2023-08-31T06:48:32;6.17;;;1.30;;
72201;SDS011;60105;54.956;73.412;2023-08-31T06:51:34;4.53;;;1.80;;
72201;SDS011;60105;54.956;73.412;2023-08-31T06:54:35;4.85;;;1.60;;
72201;SDS011;60105;54.956;73.412;2023-08-31T06:57:36;4.23;;;1.50;;
72201;SDS011;60105;54.956;73.412;2023-08-31T07:00:37;10.38;;;2.65;;
72201;SDS011;60105;54.956;73.412;2023-08-31T07:03:39;4.63;;;2.00;;
72201;SDS011;60105;54.956;73.412;2023-08-31T07:07:23;5.56;;;2.69;;
72201;SDS011;60105;54.956;73.412;2023-08-31T07:10:24;3.40;;;1.58;;
72201;SDS011;60105;54.956;73.412;2023-08-31T07:13:25;5.50;;;1.45;;
72201;SDS011;60105;54.956;73.412;2023-08-31T07:16:27;5.70;;;1.90;;
72201;SDS011;60105;54.956;73.412;2023-08-31T07:19:28;6.63;;;1.40;;
72201;SDS011;60105;54.956;73.412;2023-08-31T07:22:29;2.28;;;1.15;;
72201;SDS011;60105;54.956;73.412;2023-08-31T07:25:30;6.32;;;2.13;;
72201;SDS011;60105;54.956;73.412;2023-08-31T07:28:32;6.70;;;1.90;;
72201;SDS011;60105;54.956;73.412;2023-08-31T07:31:34;3.15;;;1.52;;
72201;SDS011;60105;54.956;73.412;2023-08-31T07:34:36;4.30;;;1.27;;
72201;SDS011;60105;54.956;73.412;2023-08-31T07:37:37;3.78;;;1.55;;
72201;SDS011;60105;54.956;73.412;2023-08-31T07:40:39;4.73;;;1.50;;
72201;SDS011;60105;54.956;73.412;2023-08-31T07:43:40;6.60;;;1.40;;
72201;SDS011;60105;54.956;73.412;2023-08-31T07:47:23;5.68;;;1.70;;
72201;SDS011;60105;54.956;73.412;2023-08-31T07:50:24;4.97;;;2.00;;
72201;SDS011;60105;54.956;73.412;2023-08-31T07:53:25;5.33;;;1.83;;
72201;SDS011;60105;54.956;73.412;2023-08-31T07:56:26;6.60;;;2.00;;
72201;SDS011;60105;54.956;73.412;2023-08-31T07:59:28;3.53;;;1.70;;
72201;SDS011;60105;54.956;73.412;2023-08-31T08:02:31;3.30;;;1.70;;
72201;SDS011;60105;54.956;73.412;2023-08-31T08:05:32;4.03;;;1.90;;
72201;SDS011;60105;54.956;73.412;2023-08-31T08:08:33;7.03;;;2.00;;
72201;SDS011;60105;54.956;73.412;2023-08-31T08:11:34;5.67;;;1.60;;
72201;SDS011;60105;54.956;73.412;2023-08-31T08:14:36;5.93;;;2.10;;
72201;SDS011;60105;54.956;73.412;2023-08-31T08:17:37;5.28;;;1.38;;
72201;SDS011;60105;54.956;73.412;2023-08-31T08:20:39;4.50;;;2.00;;
72201;SDS011;60105;54.956;73.412;2023-08-31T08:23:40;4.15;;;1.83;;
72201;SDS011;60105;54.956;73.412;2023-08-31T08:27:23;4.09;;;1.84;;
72201;SDS011;60105;54.956;73.412;2023-08-31T08:30:24;5.93;;;2.08;;
72201;SDS011;60105;54.956;73.412;2023-08-31T08:33:26;3.77;;;1.70;;
72201;SDS011;60105;54.956;73.412;2023-08-31T08:36:28;3.90;;;1.70;;
72201;SDS011;60105;54.956;73.412;2023-08-31T08:39:29;3.60;;;1.70;;
72201;SDS011;60105;54.956;73.412;2023-08-31T08:42:32;3.90;;;1.60;;
72201;SDS011;60105;54.956;73.412;2023-08-31T08:45:37;6.70;;;2.65;;
72201;SDS011;60105;54.956;73.412;2023-08-31T08:48:40;5.25;;;2.10;;
72201;SDS011;60105;54.956;73.412;2023-08-31T08:52:23;4.84;;;2.16;;
72201;SDS011;60105;54.956;73.412;2023-08-31T08:55:24;5.22;;;1.63;;
72201;SDS011;60105;54.956;73.412;2023-08-31T08:58:26;6.43;;;1.93;;
72201;SDS011;60105;54.956;73.412;2023-08-31T09:01:27;5.38;;;2.28;;
72201;SDS011;60105;54.956;73.412;2023-08-31T09:04:30;5.95;;;1.63;;
72201;SDS011;60105;54.956;73.412;2023-08-31T09:07:33;4.67;;;2.07;;
72201;SDS011;60105;54.956;73.412;2023-08-31T09:10:40;8.60;;;2.30;;
72201;SDS011;60105;54.956;73.412;2023-08-31T09:13:47;6.27;;;2.10;;
72201;SDS011;60105;54.956;73.412;2023-08-31T09:17:23;4.68;;;2.05;;
72201;SDS011;60105;54.956;73.412;2023-08-31T09:20:28;9.18;;;2.70;;
72201;SDS011;60105;54.956;73.412;2023-08-31T09:23:29;7.40;;;2.25;;
72201;SDS011;60105;54.956;73.412;2023-08-31T09:26:37;7.60;;;2.22;;
72201;SDS011;60105;54.956;73.412;2023-08-31T09:29:44;4.43;;;2.20;;
72201;SDS011;60105;54.956;73.412;2023-08-31T09:32:51;8.90;;;2.60;;
72201;SDS011;60105;54.956;73.412;2023-08-31T09:35:55;8.93;;;2.30;;
72201;SDS011;60105;54.956;73.412;2023-08-31T09:38:58;6.47;;;2.72;;
72201;SDS011;60105;54.956;73.412;2023-08-31T09:45:36;6.05;;;2.60;;
72201;SDS011;60105;54.956;73.412;2023-08-31T09:48:39;9.50;;;2.80;;
72201;SDS011;60105;54.956;73.412;2023-08-31T09:52:23;5.13;;;2.50;;
72201;SDS011;60105;54.956;73.412;2023-08-31T09:55:25;7.97;;;2.93;;
72201;SDS011;60105;54.956;73.412;2023-08-31T09:58:29;7.07;;;2.63;;
72201;SDS011;60105;54.956;73.412;2023-08-31T10:01:31;5.28;;;2.22;;
72201;SDS011;60105;54.956;73.412;2023-08-31T10:04:34;6.30;;;2.10;;
72201;SDS011;60105;54.956;73.412;2023-08-31T10:07:37;5.38;;;1.95;;
72201;SDS011;60105;54.956;73.412;2023-08-31T10:10:40;7.93;;;2.65;;
72201;SDS011;60105;54.956;73.412;2023-08-31T10:13:41;4.90;;;2.20;;
72201;SDS011;60105;54.956;73.412;2023-08-31T10:17:23;5.40;;;2.47;;
72201;SDS011;60105;54.956;73.412;2023-08-31T10:20:26;5.88;;;2.20;;
72201;SDS011;60105;54.956;73.412;2023-08-31T10:23:35;7.40;;;2.80;;
72201;SDS011;60105;54.956;73.412;2023-08-31T10:26:36;7.05;;;2.65;;
72201;SDS011;60105;54.956;73.412;2023-08-31T10:29:37;11.00;;;3.63;;
72201;SDS011;60105;54.956;73.412;2023-08-31T10:32:39;6.05;;;2.70;;
72201;SDS011;60105;54.956;73.412;2023-08-31T10:35:50;6.03;;;2.80;;
72201;SDS011;60105;54.956;73.412;2023-08-31T10:42:23;4.25;;;1.40;;
72201;SDS011;60105;54.956;73.412;2023-08-31T10:45:24;5.82;;;2.88;;
72201;SDS011;60105;54.956;73.412;2023-08-31T10:48:26;6.97;;;3.13;;
72201;SDS011;60105;54.956;73.412;2023-08-31T10:51:28;7.57;;;3.08;;
72201;SDS011;60105;54.956;73.412;2023-08-31T10:54:33;8.93;;;3.70;;
72201;SDS011;60105;54.956;73.412;2023-08-31T10:57:35;8.27;;;3.27;;
72201;SDS011;60105;54.956;73.412;2023-08-31T11:00:46;6.38;;;2.78;;
72201;SDS011;60105;54.956;73.412;2023-08-31T11:03:57;5.17;;;2.70;;
72201;SDS011;60105;54.956;73.412;2023-08-31T11:10:26;8.10;;;3.13;;
72201;SDS011;60105;54.956;73.412;2023-08-31T11:13:30;7.20;;;3.60;;
72201;SDS011;60105;54.956;73.412;2023-08-31T11:16:32;6.82;;;3.50;;
72201;SDS011;60105;54.956;73.412;2023-08-31T11:19:34;7.50;;;3.53;;
72201;SDS011;60105;54.956;73.412;2023-08-31T11:22:43;5.28;;;2.33;;
72201;SDS011;60105;54.956;73.412;2023-08-31T11:25:47;7.70;;;2.60;;
72201;SDS011;60105;54.956;73.412;2023-08-31T11:28:48;7.13;;;2.70;;
72201;SDS011;60105;54.956;73.412;2023-08-31T11:31:51;6.40;;;2.60;;
72201;SDS011;60105;54.956;73.412;2023-08-31T11:34:53;6.00;;;2.80;;
72201;SDS011;60105;54.956;73.412;2023-08-31T11:37:55;5.93;;;2.30;;
72201;SDS011;60105;54.956;73.412;2023-08-31T11:40:58;7.60;;;2.47;;
72201;SDS011;60105;54.956;73.412;2023-08-31T11:43:59;5.32;;;2.22;;
72201;SDS011;60105;54.956;73.412;2023-08-31T11:50:25;5.70;;;2.70;;
72201;SDS011;60105;54.956;73.412;2023-08-31T11:53:27;5.15;;;2.03;;
72201;SDS011;60105;54.956;73.412;2023-08-31T11:56:43;11.47;;;2.53;;
72201;SDS011;60105;54.956;73.412;2023-08-31T11:59:47;7.00;;;2.60;;
72201;SDS011;60105;54.956;73.412;2023-08-31T12:03:00;6.77;;;3.03;;
72201;SDS011;60105;54.956;73.412;2023-08-31T12:06:03;5.93;;;2.53;;
72201;SDS011;60105;54.956;73.412;2023-08-31T12:09:07;6.05;;;2.35;;
72201;SDS011;60105;54.956;73.412;2023-08-31T12:15:30;5.30;;;2.20;;
72201;SDS011;60105;54.956;73.412;2023-08-31T12:18:32;6.73;;;2.10;;
72201;SDS011;60105;54.956;73.412;2023-08-31T12:21:33;8.77;;;2.65;;
72201;SDS011;60105;54.956;73.412;2023-08-31T12:24:41;9.07;;;3.87;;
72201;SDS011;60105;54.956;73.412;2023-08-31T12:27:42;6.63;;;2.47;;
72201;SDS011;60105;54.956;73.412;2023-08-31T12:30:46;7.38;;;2.70;;
72201;SDS011;60105;54.956;73.412;2023-08-31T12:33:52;7.07;;;2.60;;
72201;SDS011;60105;54.956;73.412;2023-08-31T12:37:23;8.82;;;2.58;;
72201;SDS011;60105;54.956;73.412;2023-08-31T12:40:24;6.03;;;3.07;;
72201;SDS011;60105;54.956;73.412;2023-08-31T12:43:26;5.43;;;3.35;;
72201;SDS011;60105;54.956;73.412;2023-08-31T12:46:27;7.30;;;2.88;;
72201;SDS011;60105;54.956;73.412;2023-08-31T12:49:28;7.93;;;3.00;;
72201;SDS011;60105;54.956;73.412;2023-08-31T12:52:29;3.83;;;2.28;;
72201;SDS011;60105;54.956;73.412;2023-08-31T12:55:31;5.00;;;2.33;;
72201;SDS011;60105;54.956;73.412;2023-08-31T12:58:32;6.77;;;2.43;;
72201;SDS011;60105;54.956;73.412;2023-08-31T13:01:33;7.65;;;3.42;;
72201;SDS011;60105;54.956;73.412;2023-08-31T13:04:36;8.67;;;3.63;;
72201;SDS011;60105;54.956;73.412;2023-08-31T13:07:37;5.23;;;2.80;;
72201;SDS011;60105;54.956;73.412;2023-08-31T13:10:39;7.93;;;3.30;;
72201;SDS011;60105;54.956;73.412;2023-08-31T13:13:40;7.23;;;3.23;;
72201;SDS011;60105;54.956;73.412;2023-08-31T13:17:23;8.40;;;3.45;;
72201;SDS011;60105;54.956;73.412;2023-08-31T13:20:27;7.22;;;3.35;;
72201;SDS011;60105;54.956;73.412;2023-08-31T13:23:29;6.80;;;2.93;;
72201;SDS011;60105;54.956;73.412;2023-08-31T13:26:32;5.30;;;2.78;;
72201;SDS011;60105;54.956;73.412;2023-08-31T13:29:46;6.97;;;2.50;;
72201;SDS011;60105;54.956;73.412;2023-08-31T13:32:47;9.38;;;2.90;;
72201;SDS011;60105;54.956;73.412;2023-08-31T13:35:48;6.20;;;2.42;;
72201;SDS011;60105;54.956;73.412;2023-08-31T13:38:50;4.15;;;1.52;;
72201;SDS011;60105;54.956;73.412;2023-08-31T13:42:23;4.80;;;1.58;;
72201;SDS011;60105;54.956;73.412;2023-08-31T13:45:25;6.17;;;1.80;;
72201;SDS011;60105;54.956;73.412;2023-08-31T13:48:27;8.98;;;1.73;;
72201;SDS011;60105;54.956;73.412;2023-08-31T13:51:28;4.18;;;1.60;;
72201;SDS011;60105;54.956;73.412;2023-08-31T13:54:30;5.25;;;1.70;;
72201;SDS011;60105;54.956;73.412;2023-08-31T13:57:31;3.60;;;1.33;;
72201;SDS011;60105;54.956;73.412;2023-08-31T14:00:36;5.47;;;1.60;;
72201;SDS011;60105;54.956;73.412;2023-08-31T14:03:38;5.03;;;1.33;;
72201;SDS011;60105;54.956;73.412;2023-08-31T14:07:23;3.84;;;1.97;;
72201;SDS011;60105;54.956;73.412;2023-08-31T14:10:24;5.63;;;1.92;;
72201;SDS011;60105;54.956;73.412;2023-08-31T14:13:26;5.38;;;1.88;;
72201;SDS011;60105;54.956;73.412;2023-08-31T14:16:27;4.70;;;1.80;;
72201;SDS011;60105;54.956;73.412;2023-08-31T14:19:29;4.32;;;2.13;;
72201;SDS011;60105;54.956;73.412;2023-08-31T14:22:30;10.77;;;2.00;;
72201;SDS011;60105;54.956;73.412;2023-08-31T14:25:35;3.78;;;1.90;;
72201;SDS011;60105;54.956;73.412;2023-08-31T14:28:39;7.77;;;2.20;;
72201;SDS011;60105;54.956;73.412;2023-08-31T14:31:51;7.93;;;2.64;;
72201;SDS011;60105;54.956;73.412;2023-08-31T14:34:55;7.97;;;3.13;;
72201;SDS011;60105;54.956;73.412;2023-08-31T14:37:57;7.90;;;3.27;;
72201;SDS011;60105;54.956;73.412;2023-08-31T14:40:59;8.02;;;3.65;;
72201;SDS011;60105;54.956;73.412;2023-08-31T14:44:01;8.35;;;4.05;;
72201;SDS011;60105;54.956;73.412;2023-08-31T14:50:24;12.38;;;4.57;;
72201;SDS011;60105;54.956;73.412;2023-08-31T14:53:26;14.50;;;4.90;;
72201;SDS011;60105;54.956;73.412;2023-08-31T14:56:28;11.98;;;5.13;;
72201;SDS011;60105;54.956;73.412;2023-08-31T14:59:29;11.63;;;4.83;;
72201;SDS011;60105;54.956;73.412;2023-08-31T15:02:31;15.32;;;4.72;;
72201;SDS011;60105;54.956;73.412;2023-08-31T15:05:32;8.27;;;3.67;;
72201;SDS011;60105;54.956;73.412;2023-08-31T15:08:38;8.85;;;3.58;;
72201;SDS011;60105;54.956;73.412;2023-08-31T15:12:23;10.50;;;3.43;;
72201;SDS011;60105;54.956;73.412;2023-08-31T15:15:28;17.33;;;5.97;;
72201;SDS011;60105;54.956;73.412;2023-08-31T15:18:37;9.27;;;4.10;;
72201;SDS011;60105;54.956;73.412;2023-08-31T15:22:23;10.48;;;4.37;;
72201;SDS011;60105;54.956;73.412;2023-08-31T15:25:24;13.15;;;3.72;;
72201;SDS011;60105;54.956;73.412;2023-08-31T15:28:26;8.93;;;4.03;;
72201;SDS011;60105;54.956;73.412;2023-08-31T15:31:28;9.65;;;3.72;;
72201;SDS011;60105;54.956;73.412;2023-08-31T15:34:30;11.43;;;3.87;;
72201;SDS011;60105;54.956;73.412;2023-08-31T15:37:31;10.25;;;3.92;;
72201;SDS011;60105;54.956;73.412;2023-08-31T15:40:33;9.03;;;3.10;;
72201;SDS011;60105;54.956;73.412;2023-08-31T15:43:35;7.67;;;3.40;;
72201;SDS011;60105;54.956;73.412;2023-08-31T15:47:23;7.70;;;3.36;;
72201;SDS011;60105;54.956;73.412;2023-08-31T15:50:24;6.07;;;2.40;;
72201;SDS011;60105;54.956;73.412;2023-08-31T15:53:26;6.83;;;2.60;;
72201;SDS011;60105;54.956;73.412;2023-08-31T15:56:30;5.35;;;2.80;;
72201;SDS011;60105;54.956;73.412;2023-08-31T15:59:32;5.57;;;2.63;;
72201;SDS011;60105;54.956;73.412;2023-08-31T16:02:33;5.97;;;2.67;;
72201;SDS011;60105;54.956;73.412;2023-08-31T16:05:35;5.32;;;2.50;;
72201;SDS011;60105;54.956;73.412;2023-08-31T16:08:37;4.40;;;2.20;;
72201;SDS011;60105;54.956;73.412;2023-08-31T16:12:23;6.43;;;2.77;;
72201;SDS011;60105;54.956;73.412;2023-08-31T16:15:25;4.22;;;1.60;;
72201;SDS011;60105;54.956;73.412;2023-08-31T16:18:29;4.23;;;2.30;;
72201;SDS011;60105;54.956;73.412;2023-08-31T16:21:30;5.97;;;2.67;;
72201;SDS011;60105;54.956;73.412;2023-08-31T16:24:32;9.13;;;3.33;;
72201;SDS011;60105;54.956;73.412;2023-08-31T16:27:33;5.38;;;2.47;;
72201;SDS011;60105;54.956;73.412;2023-08-31T16:30:35;6.97;;;2.97;;
72201;SDS011;60105;54.956;73.412;2023-08-31T16:33:36;6.13;;;2.67;;
72201;SDS011;60105;54.956;73.412;2023-08-31T16:36:38;6.32;;;2.80;;
72201;SDS011;60105;54.956;73.412;2023-08-31T16:39:39;5.87;;;2.50;;
72201;SDS011;60105;54.956;73.412;2023-08-31T16:42:41;9.02;;;2.85;;
72201;SDS011;60105;54.956;73.412;2023-08-31T16:45:43;5.45;;;2.38;;
72201;SDS011;60105;54.956;73.412;2023-08-31T16:48:58;5.57;;;1.90;;
72201;SDS011;60105;54.956;73.412;2023-08-31T16:55:24;6.03;;;2.33;;
72201;SDS011;60105;54.956;73.412;2023-08-31T16:58:35;6.63;;;2.07;;
72201;SDS011;60105;54.956;73.412;2023-08-31T17:01:37;6.82;;;2.88;;
72201;SDS011;60105;54.956;73.412;2023-08-31T17:04:38;8.27;;;2.75;;
72201;SDS011;60105;54.956;73.412;2023-08-31T17:07:43;6.17;;;2.70;;
72201;SDS011;60105;54.956;73.412;2023-08-31T17:10:44;5.30;;;2.70;;
72201;SDS011;60105;54.956;73.412;2023-08-31T17:13:46;5.72;;;2.20;;
72201;SDS011;60105;54.956;73.412;2023-08-31T17:17:23;6.13;;;2.60;;
72201;SDS011;60105;54.956;73.412;2023-08-31T17:20:26;4.85;;;2.22;;
72201;SDS011;60105;54.956;73.412;2023-08-31T17:23:27;5.57;;;2.50;;
72201;SDS011;60105;54.956;73.412;2023-08-31T17:26:31;4.60;;;2.38;;
72201;SDS011;60105;54.956;73.412;2023-08-31T17:29:33;6.07;;;2.70;;
72201;SDS011;60105;54.956;73.412;2023-08-31T17:32:36;5.27;;;2.30;;
72201;SDS011;60105;54.956;73.412;2023-08-31T17:35:37;8.13;;;2.22;;
72201;SDS011;60105;54.956;73.412;2023-08-31T17:38:41;5.47;;;2.20;;
72201;SDS011;60105;54.956;73.412;2023-08-31T17:42:23;4.57;;;1.95;;
72201;SDS011;60105;54.956;73.412;2023-08-31T17:45:24;5.57;;;2.80;;
72201;SDS011;60105;54.956;73.412;2023-08-31T17:48:26;5.17;;;2.20;;
72201;SDS011;60105;54.956;73.412;2023-08-31T17:51:28;6.17;;;2.23;;
72201;SDS011;60105;54.956;73.412;2023-08-31T17:54:29;2.85;;;1.30;;
72201;SDS011;60105;54.956;73.412;2023-08-31T17:57:32;4.33;;;2.00;;
72201;SDS011;60105;54.956;73.412;2023-08-31T18:00:34;4.15;;;1.50;;
72201;SDS011;60105;54.956;73.412;2023-08-31T18:03:35;4.72;;;2.15;;
72201;SDS011;60105;54.956;73.412;2023-08-31T18:06:36;3.67;;;1.83;;
72201;SDS011;60105;54.956;73.412;2023-08-31T18:09:37;4.07;;;1.83;;
72201;SDS011;60105;54.956;73.412;2023-08-31T18:12:39;3.78;;;1.90;;
72201;SDS011;60105;54.956;73.412;2023-08-31T18:15:47;3.17;;;1.50;;
72201;SDS011;60105;54.956;73.412;2023-08-31T18:18:52;3.30;;;1.63;;
72201;SDS011;60105;54.956;73.412;2023-08-31T18:22:23;3.95;;;1.73;;
72201;SDS011;60105;54.956;73.412;2023-08-31T18:25:24;3.27;;;1.50;;
72201;SDS011;60105;54.956;73.412;2023-08-31T18:28:26;4.10;;;1.57;;
72201;SDS011;60105;54.956;73.412;2023-08-31T18:31:28;3.78;;;1.98;;
72201;SDS011;60105;54.956;73.412;2023-08-31T18:34:29;6.07;;;1.88;;
72201;SDS011;60105;54.956;73.412;2023-08-31T18:37:31;3.03;;;1.75;;
72201;SDS011;60105;54.956;73.412;2023-08-31T18:40:35;3.25;;;1.73;;
72201;SDS011;60105;54.956;73.412;2023-08-31T18:43:36;3.73;;;1.93;;
72201;SDS011;60105;54.956;73.412;2023-08-31T18:47:23;4.70;;;1.58;;
72201;SDS011;60105;54.956;73.412;2023-08-31T18:50:25;3.97;;;1.77;;